createdAt,value
2022-11-07T00:00:16.322Z,5.99
2022-11-07T00:01:16.790Z,5.98
2022-11-07T00:02:16.723Z,6.02
2022-11-07T00:03:16.714Z,6.03
2022-11-07T00:04:17.077Z,6.05
2022-11-07T00:05:16.656Z,6.02
2022-11-07T00:06:17.152Z,6.08
2022-11-07T00:07:16.620Z,6.06
2022-11-07T00:08:17.087Z,6.08
2022-11-07T00:09:16.549Z,6.09
2022-11-07T00:10:17.017Z,6.10
2022-11-07T00:11:16.477Z,6.10
2022-11-07T00:12:16.716Z,6.14
2022-11-07T00:13:17.443Z,6.16
2022-11-07T00:14:17.122Z,6.19
2022-11-07T00:15:16.556Z,6.21
2022-11-07T00:16:17.003Z,6.24
2022-11-07T00:17:16.432Z,6.23
2022-11-07T00:18:16.889Z,6.19
2022-11-07T00:19:16.356Z,6.21
2022-11-07T00:20:16.819Z,6.19
2022-11-07T00:21:17.298Z,6.17
2022-11-07T00:22:16.648Z,6.16
2022-11-07T00:23:17.352Z,6.19
2022-11-07T00:24:17.005Z,6.19
2022-11-07T00:25:16.467Z,6.19
2022-11-07T00:26:16.948Z,6.19
2022-11-07T00:27:16.488Z,6.23
2022-11-07T00:28:17.072Z,6.24
2022-11-07T00:29:16.512Z,6.27
2022-11-07T00:30:16.954Z,6.24
2022-11-07T00:31:16.376Z,6.24
2022-11-07T00:32:17.019Z,6.23
2022-11-07T00:33:16.679Z,6.24
2022-11-07T00:34:16.620Z,6.29
2022-11-07T00:35:17.155Z,6.33
2022-11-07T00:36:16.624Z,6.26
2022-11-07T00:37:17.125Z,6.27
2022-11-07T00:38:16.599Z,6.29
2022-11-07T00:39:17.076Z,6.29
2022-11-07T00:40:16.537Z,6.33
2022-11-07T00:41:16.980Z,6.30
2022-11-07T00:42:16.828Z,6.31
2022-11-07T00:43:17.337Z,6.31
2022-11-07T00:44:16.905Z,6.37
2022-11-07T00:45:16.326Z,6.40
2022-11-07T00:46:16.771Z,6.40
2022-11-07T00:47:17.207Z,6.36
2022-11-07T00:48:16.662Z,6.37
2022-11-07T00:49:17.180Z,6.38
2022-11-07T00:50:16.672Z,6.38
2022-11-07T00:51:17.148Z,6.38
2022-11-07T00:52:16.471Z,6.43
2022-11-07T00:53:17.073Z,6.40
2022-11-07T00:54:17.016Z,6.41
2022-11-07T00:55:16.466Z,6.40
2022-11-07T00:56:16.915Z,6.44
2022-11-07T00:57:16.343Z,6.44
2022-11-07T00:58:16.763Z,6.48
2022-11-07T00:59:17.234Z,6.49
2022-11-07T01:00:16.671Z,6.54
2022-11-07T01:01:17.151Z,6.59
2022-11-07T01:02:17.093Z,6.61
2022-11-07T01:03:17.160Z,6.59
2022-11-07T01:04:17.032Z,6.63
2022-11-07T01:05:16.493Z,6.63
2022-11-07T01:06:16.981Z,6.64
2022-11-07T01:07:16.464Z,6.68
2022-11-07T01:08:16.936Z,6.69
2022-11-07T01:09:16.392Z,6.69
2022-11-07T01:10:16.841Z,6.71
2022-11-07T01:11:17.286Z,6.74
2022-11-07T01:12:16.735Z,6.74
2022-11-07T01:13:17.322Z,6.81
2022-11-07T01:14:16.973Z,6.75
2022-11-07T01:15:16.400Z,6.75
2022-11-07T01:16:16.883Z,6.76
2022-11-07T01:17:16.354Z,6.78
2022-11-07T01:18:16.862Z,6.71
2022-11-07T01:19:16.333Z,6.72
2022-11-07T01:20:16.835Z,6.68
2022-11-07T01:21:16.743Z,6.72
2022-11-07T01:22:17.145Z,6.69
2022-11-07T01:23:16.802Z,6.68
2022-11-07T01:24:17.251Z,6.72
2022-11-07T01:25:16.675Z,6.72
2022-11-07T01:26:17.145Z,6.74
2022-11-07T01:27:16.576Z,6.69
2022-11-07T01:28:17.015Z,6.71
2022-11-07T01:29:16.459Z,6.72
2022-11-07T01:30:16.930Z,6.75
2022-11-07T01:31:16.421Z,6.76
2022-11-07T01:32:16.333Z,6.82
2022-11-07T01:33:17.038Z,6.81
2022-11-07T01:34:17.073Z,6.84
2022-11-07T01:35:16.531Z,6.84
2022-11-07T01:36:17.033Z,6.81
2022-11-07T01:37:16.506Z,6.78
2022-11-07T01:38:16.965Z,6.78
2022-11-07T01:39:16.395Z,6.79
2022-11-07T01:40:16.836Z,6.82
2022-11-07T01:41:17.263Z,6.82
2022-11-07T01:42:16.603Z,6.79
2022-11-07T01:43:17.248Z,6.82
2022-11-07T01:44:16.781Z,6.79
2022-11-07T01:45:17.227Z,6.81
2022-11-07T01:46:16.704Z,6.82
2022-11-07T01:47:17.162Z,6.84
2022-11-07T01:48:16.633Z,6.84
2022-11-07T01:49:17.121Z,6.82
2022-11-07T01:50:16.605Z,6.84
2022-11-07T01:51:17.096Z,6.88
2022-11-07T01:52:17.044Z,6.84
2022-11-07T01:53:16.714Z,6.84
2022-11-07T01:54:16.693Z,6.91
2022-11-07T01:55:17.134Z,6.89
2022-11-07T01:56:16.582Z,6.86
2022-11-07T01:57:17.013Z,6.92
2022-11-07T01:58:16.462Z,6.95
2022-11-07T01:59:16.893Z,6.95
2022-11-07T02:00:16.600Z,6.95
2022-11-07T02:01:17.141Z,6.95
2022-11-07T02:02:16.780Z,6.92
2022-11-07T02:03:16.724Z,6.94
2022-11-07T02:04:17.014Z,6.98
2022-11-07T02:05:16.477Z,6.95
2022-11-07T02:06:16.930Z,7.00
2022-11-07T02:07:16.412Z,6.98
2022-11-07T02:08:16.850Z,7.03
2022-11-07T02:09:17.500Z,7.00
2022-11-07T02:10:16.949Z,7.00
2022-11-07T02:11:16.400Z,7.02
2022-11-07T02:12:16.968Z,6.98
2022-11-07T02:13:16.647Z,6.96
2022-11-07T02:14:16.617Z,6.98
2022-11-07T02:15:17.068Z,6.99
2022-11-07T02:16:16.569Z,7.02
2022-11-07T02:17:17.063Z,7.02
2022-11-07T02:18:16.562Z,7.03
2022-11-07T02:19:17.017Z,7.02
2022-11-07T02:20:16.483Z,7.05
2022-11-07T02:21:16.969Z,7.06
2022-11-07T02:22:16.566Z,7.10
2022-11-07T02:23:17.293Z,7.13
2022-11-07T02:24:17.268Z,7.10
2022-11-07T02:25:16.703Z,7.12
2022-11-07T02:26:17.146Z,7.13
2022-11-07T02:27:16.580Z,7.16
2022-11-07T02:28:17.034Z,7.19
2022-11-07T02:29:16.487Z,7.23
2022-11-07T02:30:16.982Z,7.22
2022-11-07T02:31:16.462Z,7.29
2022-11-07T02:32:16.529Z,7.29
2022-11-07T02:33:17.275Z,7.27
2022-11-07T02:34:16.899Z,7.30
2022-11-07T02:35:16.360Z,7.34
2022-11-07T02:36:16.812Z,7.35
2022-11-07T02:37:17.286Z,7.37
2022-11-07T02:38:16.711Z,7.38
2022-11-07T02:39:17.157Z,7.33
2022-11-07T02:40:16.591Z,7.31
2022-11-07T02:41:17.029Z,7.30
2022-11-07T02:42:16.731Z,7.26
2022-11-07T02:43:17.376Z,7.26
2022-11-07T02:44:17.270Z,7.29
2022-11-07T02:45:16.750Z,7.27
2022-11-07T02:46:17.214Z,7.29
2022-11-07T02:47:16.669Z,7.31
2022-11-07T02:48:17.144Z,7.31
2022-11-07T02:49:16.804Z,7.34
2022-11-07T02:50:17.263Z,7.34
2022-11-07T02:51:16.725Z,7.37
2022-11-07T02:52:16.566Z,7.35
2022-11-07T02:53:17.364Z,7.37
2022-11-07T02:54:16.430Z,7.38
2022-11-07T02:55:16.855Z,7.35
2022-11-07T02:56:16.330Z,7.38
2022-11-07T02:57:16.807Z,7.34
2022-11-07T02:58:17.240Z,7.38
2022-11-07T02:59:16.695Z,7.38
2022-11-07T03:00:17.161Z,7.40
2022-11-07T03:01:16.685Z,7.38
2022-11-07T03:02:17.357Z,7.41
2022-11-07T03:03:17.487Z,7.43
2022-11-07T03:04:16.478Z,7.38
2022-11-07T03:05:17.073Z,7.41
2022-11-07T03:06:16.617Z,7.40
2022-11-07T03:07:17.055Z,7.40
2022-11-07T03:08:16.484Z,7.43
2022-11-07T03:09:16.911Z,7.41
2022-11-07T03:10:16.354Z,7.40
2022-11-07T03:11:16.573Z,7.44
2022-11-07T03:12:16.482Z,7.41
2022-11-07T03:13:17.270Z,7.43
2022-11-07T03:14:17.077Z,7.43
2022-11-07T03:15:16.547Z,7.47
2022-11-07T03:16:17.019Z,7.44
2022-11-07T03:17:16.531Z,7.41
2022-11-07T03:18:16.996Z,7.43
2022-11-07T03:19:16.465Z,7.50
2022-11-07T03:20:16.974Z,7.53
2022-11-07T03:21:16.442Z,7.54
2022-11-07T03:22:16.686Z,7.55
2022-11-07T03:23:17.513Z,7.55
2022-11-07T03:24:16.509Z,7.55
2022-11-07T03:25:16.934Z,7.50
2022-11-07T03:26:16.362Z,7.54
2022-11-07T03:27:16.833Z,7.57
2022-11-07T03:28:17.266Z,7.57
2022-11-07T03:29:16.738Z,7.58
2022-11-07T03:30:17.192Z,7.58
2022-11-07T03:31:16.644Z,7.59
2022-11-07T03:32:16.651Z,7.61
2022-11-07T03:33:17.348Z,7.59
2022-11-07T03:34:16.339Z,7.59
2022-11-07T03:35:16.794Z,7.58
2022-11-07T03:36:17.234Z,7.59
2022-11-07T03:37:16.675Z,7.62
2022-11-07T03:38:17.120Z,7.62
2022-11-07T03:39:18.551Z,7.62
2022-11-07T03:40:17.147Z,7.59
2022-11-07T03:41:16.579Z,7.59
2022-11-07T03:42:16.943Z,7.59
2022-11-07T03:43:16.735Z,7.59
2022-11-07T03:44:16.889Z,7.65
2022-11-07T03:45:16.351Z,7.65
2022-11-07T03:46:16.858Z,7.62
2022-11-07T03:47:16.355Z,7.64
2022-11-07T03:48:16.809Z,7.62
2022-11-07T03:49:17.310Z,7.64
2022-11-07T03:50:16.824Z,7.61
2022-11-07T03:51:17.273Z,7.65
2022-11-07T03:52:17.081Z,7.65
2022-11-07T03:53:20.771Z,7.66
2022-11-07T03:54:17.212Z,7.66
2022-11-07T03:55:16.644Z,7.65
2022-11-07T03:56:17.079Z,7.65
2022-11-07T03:57:16.558Z,7.66
2022-11-07T03:58:17.010Z,7.64
2022-11-07T03:59:16.491Z,7.65
2022-11-07T04:00:16.968Z,7.62
2022-11-07T04:01:16.559Z,7.64
2022-11-07T04:02:16.425Z,7.62
2022-11-07T04:03:17.460Z,7.62
2022-11-07T04:04:16.431Z,7.64
2022-11-07T04:05:16.880Z,7.62
2022-11-07T04:06:16.311Z,7.61
2022-11-07T04:07:16.758Z,7.62
2022-11-07T04:08:17.188Z,7.61
2022-11-07T04:09:16.614Z,7.59
2022-11-07T04:10:17.045Z,7.61
2022-11-07T04:11:16.468Z,7.62
2022-11-07T04:12:16.388Z,7.65
2022-11-07T04:13:17.115Z,7.66
2022-11-07T04:14:16.989Z,7.65
2022-11-07T04:15:16.446Z,7.62
2022-11-07T04:16:17.802Z,7.64
2022-11-07T04:17:16.414Z,7.66
2022-11-07T04:18:16.904Z,7.69
2022-11-07T04:19:16.401Z,7.71
2022-11-07T04:20:16.852Z,7.69
2022-11-07T04:21:16.296Z,7.68
2022-11-07T04:22:17.186Z,7.71
2022-11-07T04:23:16.884Z,7.74
2022-11-07T04:24:17.147Z,7.72
2022-11-07T04:25:16.571Z,7.74
2022-11-07T04:26:17.037Z,7.71
2022-11-07T04:27:16.530Z,7.72
2022-11-07T04:28:17.007Z,7.71
2022-11-07T04:29:16.471Z,7.77
2022-11-07T04:30:16.960Z,7.75
2022-11-07T04:31:16.437Z,7.78
2022-11-07T04:32:17.225Z,7.78
2022-11-07T04:33:16.878Z,7.81
2022-11-07T04:34:16.869Z,7.80
2022-11-07T04:35:16.321Z,7.84
2022-11-07T04:36:16.759Z,7.85
2022-11-07T04:37:17.190Z,7.85
2022-11-07T04:38:16.633Z,7.86
2022-11-07T04:39:17.088Z,7.86
2022-11-07T04:40:16.572Z,7.85
2022-11-07T04:41:17.041Z,7.88
2022-11-07T04:42:16.600Z,7.89
2022-11-07T04:43:17.257Z,7.93
2022-11-07T04:44:17.092Z,7.98
2022-11-07T04:45:16.565Z,7.95
2022-11-07T04:46:17.067Z,7.93
2022-11-07T04:47:16.540Z,7.91
2022-11-07T04:48:16.971Z,7.82
2022-11-07T04:49:16.396Z,7.80
2022-11-07T04:50:16.861Z,7.74
2022-11-07T04:51:16.295Z,7.71
2022-11-07T04:52:17.011Z,7.69
2022-11-07T04:53:16.732Z,7.68
2022-11-07T04:54:16.600Z,7.65
2022-11-07T04:55:17.043Z,7.66
2022-11-07T04:56:16.538Z,7.59
2022-11-07T04:57:17.029Z,7.58
2022-11-07T04:58:16.480Z,7.53
2022-11-07T04:59:16.936Z,7.47
2022-11-07T05:00:16.421Z,7.47
2022-11-07T05:01:16.883Z,7.44
2022-11-07T05:02:16.758Z,7.43
2022-11-07T05:03:16.761Z,7.35
2022-11-07T05:04:17.248Z,7.34
2022-11-07T05:05:16.681Z,7.35
2022-11-07T05:06:17.100Z,7.37
2022-11-07T05:07:16.554Z,7.33
2022-11-07T05:08:16.984Z,7.34
2022-11-07T05:09:16.446Z,7.35
2022-11-07T05:10:16.952Z,7.26
2022-11-07T05:11:16.452Z,7.24
2022-11-07T05:12:17.101Z,7.27
2022-11-07T05:13:16.786Z,7.29
2022-11-07T05:14:16.797Z,7.30
2022-11-07T05:15:17.259Z,7.31
2022-11-07T05:16:16.737Z,7.35
2022-11-07T05:17:17.236Z,7.34
2022-11-07T05:18:16.676Z,7.38
2022-11-07T05:19:17.338Z,7.38
2022-11-07T05:20:16.764Z,7.40
2022-11-07T05:21:17.200Z,7.41
2022-11-07T05:22:16.894Z,7.50
2022-11-07T05:23:16.619Z,7.48
2022-11-07T05:24:16.605Z,7.45
2022-11-07T05:25:17.097Z,7.43
2022-11-07T05:26:16.588Z,7.41
2022-11-07T05:27:17.105Z,7.41
2022-11-07T05:28:16.579Z,7.41
2022-11-07T05:29:17.049Z,7.50
2022-11-07T05:30:16.516Z,7.58
2022-11-07T05:31:16.983Z,7.59
2022-11-07T05:32:16.948Z,7.61
2022-11-07T05:33:16.765Z,7.57
2022-11-07T05:34:16.936Z,7.55
2022-11-07T05:35:16.387Z,7.59
2022-11-07T05:36:16.816Z,7.65
2022-11-07T05:37:17.283Z,7.68
2022-11-07T05:38:16.718Z,7.71
2022-11-07T05:39:17.171Z,7.72
2022-11-07T05:40:16.670Z,7.71
2022-11-07T05:41:17.189Z,7.71
2022-11-07T05:42:16.660Z,7.80
2022-11-07T05:43:17.383Z,7.78
2022-11-07T05:44:16.580Z,7.78
2022-11-07T05:45:17.028Z,7.85
2022-11-07T05:46:16.486Z,7.88
2022-11-07T05:47:16.924Z,7.89
2022-11-07T05:48:16.369Z,7.88
2022-11-07T05:49:16.811Z,7.91
2022-11-07T05:50:17.260Z,7.89
2022-11-07T05:51:16.699Z,7.96
2022-11-07T05:52:16.457Z,7.96
2022-11-07T05:53:17.267Z,7.96
2022-11-07T05:54:16.744Z,7.93
2022-11-07T05:55:17.225Z,7.95
2022-11-07T05:56:16.691Z,7.98
2022-11-07T05:57:17.206Z,7.98
2022-11-07T05:58:16.681Z,7.99
2022-11-07T05:59:17.178Z,8.00
2022-11-07T06:00:16.683Z,8.02
2022-11-07T06:01:17.178Z,7.99
2022-11-07T06:02:16.955Z,7.99
2022-11-07T06:03:17.008Z,7.98
2022-11-07T06:04:17.251Z,7.98
2022-11-07T06:05:19.345Z,7.93
2022-11-07T06:06:16.757Z,7.95
2022-11-07T06:07:17.193Z,7.93
2022-11-07T06:08:16.630Z,7.92
2022-11-07T06:09:17.107Z,7.93
2022-11-07T06:10:16.576Z,7.96
2022-11-07T06:11:17.182Z,7.99
2022-11-07T06:12:16.941Z,8.00
2022-11-07T06:13:16.913Z,7.99
2022-11-07T06:14:17.200Z,7.99
2022-11-07T06:15:16.671Z,7.99
2022-11-07T06:16:17.124Z,7.99
2022-11-07T06:17:16.548Z,7.99
2022-11-07T06:18:16.989Z,7.99
2022-11-07T06:19:16.427Z,8.06
2022-11-07T06:20:16.864Z,8.08
2022-11-07T06:21:16.388Z,8.08
2022-11-07T06:22:17.191Z,8.06
2022-11-07T06:23:16.813Z,8.06
2022-11-07T06:24:17.008Z,8.08
2022-11-07T06:25:16.463Z,8.06
2022-11-07T06:26:16.959Z,8.06
2022-11-07T06:27:16.452Z,8.06
2022-11-07T06:28:16.921Z,8.08
2022-11-07T06:29:16.409Z,8.05
2022-11-07T06:30:16.878Z,8.08
2022-11-07T06:31:16.349Z,8.12
2022-11-07T06:32:17.168Z,8.08
2022-11-07T06:33:16.827Z,8.09
2022-11-07T06:34:16.894Z,8.09
2022-11-07T06:35:16.317Z,8.10
2022-11-07T06:36:16.781Z,8.09
2022-11-07T06:37:17.220Z,8.09
2022-11-07T06:38:16.701Z,8.09
2022-11-07T06:39:17.187Z,8.12
2022-11-07T06:40:16.657Z,8.13
2022-11-07T06:41:17.133Z,8.12
2022-11-07T06:42:16.674Z,8.08
2022-11-07T06:43:17.428Z,8.09
2022-11-07T06:44:16.949Z,8.03
2022-11-07T06:45:16.422Z,8.03
2022-11-07T06:46:16.847Z,8.05
2022-11-07T06:47:17.278Z,8.03
2022-11-07T06:48:16.719Z,7.98
2022-11-07T06:49:17.175Z,7.91
2022-11-07T06:50:16.604Z,7.88
2022-11-07T06:51:17.019Z,7.85
2022-11-07T06:52:17.221Z,7.86
2022-11-07T06:53:16.792Z,7.71
2022-11-07T06:54:16.864Z,7.74
2022-11-07T06:55:16.321Z,7.71
2022-11-07T06:56:16.800Z,7.69
2022-11-07T06:57:17.284Z,7.64
2022-11-07T06:58:16.749Z,7.68
2022-11-07T06:59:16.342Z,7.69
2022-11-07T07:00:16.797Z,7.71
2022-11-07T07:01:17.253Z,7.65
2022-11-07T07:02:30.724Z,7.65
2022-11-07T07:03:17.293Z,7.69
2022-11-07T07:04:16.374Z,7.72
2022-11-07T07:05:20.852Z,7.71
2022-11-07T07:06:16.798Z,7.72
2022-11-07T07:07:17.252Z,7.75
2022-11-07T07:08:16.730Z,7.81
2022-11-07T07:09:17.233Z,7.80
2022-11-07T07:10:16.734Z,7.82
2022-11-07T07:11:17.183Z,7.82
2022-11-07T07:12:17.018Z,7.78
2022-11-07T07:13:16.779Z,7.81
2022-11-07T07:14:17.003Z,7.78
2022-11-07T07:15:16.465Z,7.81
2022-11-07T07:16:16.906Z,7.88
2022-11-07T07:17:16.372Z,7.88
2022-11-07T07:18:16.801Z,7.89
2022-11-07T07:19:17.439Z,7.91
2022-11-07T07:20:16.901Z,7.91
2022-11-07T07:21:16.387Z,7.92
2022-11-07T07:22:17.029Z,7.93
2022-11-07T07:23:16.799Z,7.96
2022-11-07T07:24:16.876Z,7.95
2022-11-07T07:25:16.340Z,7.89
2022-11-07T07:26:16.806Z,7.91
2022-11-07T07:27:17.312Z,7.92
2022-11-07T07:28:16.815Z,7.95
2022-11-07T07:29:17.305Z,7.89
2022-11-07T07:30:16.762Z,7.92
2022-11-07T07:31:17.188Z,7.92
2022-11-07T07:32:16.976Z,7.86
2022-11-07T07:33:16.620Z,7.88
2022-11-07T07:34:16.773Z,7.88
2022-11-07T07:35:17.241Z,7.93
2022-11-07T07:36:20.420Z,7.93
2022-11-07T07:37:16.538Z,7.95
2022-11-07T07:38:17.026Z,7.96
2022-11-07T07:39:16.515Z,8.03
2022-11-07T07:40:16.978Z,8.08
2022-11-07T07:41:16.460Z,8.08
2022-11-07T07:42:16.341Z,8.06
2022-11-07T07:43:16.953Z,8.06
2022-11-07T07:44:16.960Z,8.09
2022-11-07T07:45:16.396Z,8.08
2022-11-07T07:46:16.833Z,8.10
2022-11-07T07:47:17.296Z,8.12
2022-11-07T07:48:16.732Z,8.08
2022-11-07T07:49:17.202Z,8.10
2022-11-07T07:50:16.677Z,8.16
2022-11-07T07:51:17.200Z,8.21
2022-11-07T07:52:17.095Z,8.20
2022-11-07T07:53:16.686Z,8.21
2022-11-07T07:54:16.762Z,8.29
2022-11-07T07:55:17.233Z,8.34
2022-11-07T07:56:16.707Z,8.33
2022-11-07T07:57:17.167Z,8.33
2022-11-07T07:58:16.631Z,8.41
2022-11-07T07:59:17.068Z,8.39
2022-11-07T08:00:16.504Z,8.39
2022-11-07T08:01:16.999Z,8.43
2022-11-07T08:02:16.952Z,8.50
2022-11-07T08:03:16.581Z,8.67
2022-11-07T08:04:16.720Z,8.68
2022-11-07T08:05:17.186Z,8.72
2022-11-07T08:06:16.648Z,8.78
2022-11-07T08:07:17.129Z,8.74
2022-11-07T08:08:16.592Z,8.71
2022-11-07T08:09:17.069Z,8.71
2022-11-07T08:10:40.065Z,8.72
2022-11-07T08:11:16.955Z,8.72
2022-11-07T08:12:16.861Z,8.76
2022-11-07T08:13:16.554Z,8.78
2022-11-07T08:14:16.689Z,8.80
2022-11-07T08:15:17.134Z,8.92
2022-11-07T08:16:16.589Z,8.99
2022-11-07T08:17:17.064Z,9.00
2022-11-07T08:18:16.548Z,9.05
2022-11-07T08:19:17.040Z,9.13
2022-11-07T08:20:16.537Z,9.10
2022-11-07T08:21:17.011Z,9.12
2022-11-07T08:22:16.848Z,9.10
2022-11-07T08:23:17.024Z,9.13
2022-11-07T08:24:16.636Z,9.16
2022-11-07T08:25:17.288Z,9.20
2022-11-07T08:26:16.717Z,9.20
2022-11-07T08:27:17.142Z,9.22
2022-11-07T08:28:16.579Z,9.23
2022-11-07T08:29:17.015Z,9.26
2022-11-07T08:30:18.030Z,9.34
2022-11-07T08:31:16.764Z,9.33
2022-11-07T08:32:16.802Z,9.38
2022-11-07T08:33:17.612Z,9.40
2022-11-07T08:34:16.869Z,9.45
2022-11-07T08:35:16.350Z,9.50
2022-11-07T08:36:16.842Z,9.48
2022-11-07T08:37:16.347Z,9.54
2022-11-07T08:38:16.857Z,9.64
2022-11-07T08:39:16.353Z,9.62
2022-11-07T08:40:16.812Z,9.64
2022-11-07T08:41:21.897Z,9.71
2022-11-07T08:42:17.271Z,9.81
2022-11-07T08:43:17.005Z,9.84
2022-11-07T08:44:17.258Z,9.91
2022-11-07T08:45:16.693Z,9.92
2022-11-07T08:46:17.137Z,10.03
2022-11-07T08:47:16.617Z,10.06
2022-11-07T08:48:17.076Z,10.14
2022-11-07T08:49:16.561Z,10.16
2022-11-07T08:50:17.062Z,10.21
2022-11-07T08:51:16.568Z,10.19
2022-11-07T08:52:17.261Z,10.16
2022-11-07T08:53:17.023Z,10.20
2022-11-07T08:54:17.269Z,10.27
2022-11-07T08:55:16.717Z,10.27
2022-11-07T08:56:17.161Z,10.27
2022-11-07T08:57:16.613Z,10.31
2022-11-07T08:58:17.039Z,10.33
2022-11-07T08:59:16.592Z,10.36
2022-11-07T09:00:17.055Z,10.37
2022-11-07T09:01:16.550Z,10.36
2022-11-07T09:03:39.082Z,10.48
2022-11-07T09:04:16.609Z,10.48
2022-11-07T09:05:17.218Z,10.47
2022-11-07T09:06:16.697Z,10.37
2022-11-07T09:07:17.189Z,10.34
2022-11-07T09:08:16.633Z,10.39
2022-11-07T09:09:17.059Z,10.36
2022-11-07T09:10:16.503Z,10.37
2022-11-07T09:11:16.929Z,10.41
2022-11-07T09:12:17.009Z,10.40
2022-11-07T09:13:16.720Z,10.48
2022-11-07T09:14:16.913Z,10.43
2022-11-07T09:15:16.390Z,10.43
2022-11-07T09:16:16.869Z,10.40
2022-11-07T09:17:16.349Z,10.39
2022-11-07T09:18:16.848Z,10.39
2022-11-07T09:19:16.345Z,10.52
2022-11-07T09:20:16.858Z,10.58
2022-11-07T09:21:20.892Z,10.52
2022-11-07T09:22:16.511Z,10.54
2022-11-07T09:23:17.236Z,10.56
2022-11-07T09:24:17.506Z,10.50
2022-11-07T09:25:16.946Z,10.48
2022-11-07T09:26:16.388Z,10.56
2022-11-07T09:27:16.832Z,10.63
2022-11-07T09:28:17.273Z,10.71
2022-11-07T09:29:16.712Z,10.79
2022-11-07T09:30:17.199Z,10.88
2022-11-07T09:31:16.660Z,10.87
2022-11-07T09:32:38.622Z,10.88
2022-11-07T09:33:17.294Z,10.82
2022-11-07T09:34:16.340Z,10.89
2022-11-07T09:35:16.842Z,10.91
2022-11-07T09:36:16.291Z,10.96
2022-11-07T09:37:16.730Z,11.05
2022-11-07T09:38:17.159Z,11.05
2022-11-07T09:39:16.586Z,11.12
2022-11-07T09:40:17.020Z,11.17
2022-11-07T09:41:16.493Z,11.19
2022-11-07T09:42:16.850Z,11.12
2022-11-07T09:43:16.681Z,11.10
2022-11-07T09:44:16.829Z,11.07
2022-11-07T09:45:16.313Z,11.09
2022-11-07T09:46:16.795Z,11.13
2022-11-07T09:47:17.268Z,11.26
2022-11-07T09:48:16.753Z,11.25
2022-11-07T09:49:17.211Z,11.26
2022-11-07T09:50:16.657Z,11.34
2022-11-07T09:51:17.086Z,11.30
2022-11-07T09:52:16.744Z,11.39
2022-11-07T09:53:17.371Z,11.36
2022-11-07T09:54:16.529Z,11.37
2022-11-07T09:55:16.988Z,11.37
2022-11-07T09:56:16.476Z,11.44
2022-11-07T09:57:16.937Z,11.53
2022-11-07T09:58:16.414Z,11.58
2022-11-07T09:59:16.889Z,11.61
2022-11-07T10:00:16.387Z,11.77
2022-11-07T10:01:16.961Z,11.81
2022-11-07T10:02:16.356Z,11.89
2022-11-07T10:03:17.307Z,12.05
2022-11-07T10:04:25.618Z,12.15
2022-11-07T10:05:17.173Z,12.06
2022-11-07T10:06:16.832Z,12.12
2022-11-07T10:07:16.321Z,12.16
2022-11-07T10:08:16.820Z,12.19
2022-11-07T10:09:17.313Z,12.13
2022-11-07T10:10:16.805Z,12.43
2022-11-07T10:11:17.276Z,12.51
2022-11-07T10:12:17.312Z,12.46
2022-11-07T10:13:17.083Z,12.44
2022-11-07T10:14:16.337Z,12.51
2022-11-07T10:15:16.793Z,12.37
2022-11-07T10:16:17.248Z,12.47
2022-11-07T10:17:16.710Z,12.61
2022-11-07T10:18:17.171Z,12.54
2022-11-07T10:19:16.611Z,12.53
2022-11-07T10:20:20.534Z,12.51
2022-11-07T10:21:36.923Z,12.57
2022-11-07T10:22:16.381Z,12.61
2022-11-07T10:23:17.221Z,12.84
2022-11-07T10:24:16.455Z,12.71
2022-11-07T10:25:16.914Z,12.74
2022-11-07T10:26:16.396Z,12.84
2022-11-07T10:27:16.851Z,12.88
2022-11-07T10:28:16.301Z,12.98
2022-11-07T10:29:16.743Z,12.72
2022-11-07T10:30:17.241Z,12.72
2022-11-07T10:31:16.679Z,12.84
2022-11-07T10:32:17.056Z,12.98
2022-11-07T10:33:16.748Z,13.09
2022-11-07T10:34:16.824Z,13.15
2022-11-07T10:35:17.276Z,13.23
2022-11-07T10:36:16.777Z,13.26
2022-11-07T10:37:17.244Z,13.26
2022-11-07T10:38:16.728Z,13.32
2022-11-07T10:39:17.220Z,13.37
2022-11-07T10:40:16.741Z,13.44
2022-11-07T10:41:17.228Z,13.46
2022-11-07T10:42:16.777Z,13.57
2022-11-07T10:43:17.473Z,13.60
2022-11-07T10:44:16.857Z,13.63
2022-11-07T10:45:16.325Z,13.54
2022-11-07T10:46:16.863Z,13.60
2022-11-07T10:47:16.369Z,13.61
2022-11-07T10:48:17.028Z,13.53
2022-11-07T10:49:17.086Z,13.51
2022-11-07T10:50:16.570Z,13.34
2022-11-07T10:51:17.047Z,13.30
2022-11-07T10:52:16.718Z,13.25
2022-11-07T10:53:17.167Z,13.22
2022-11-07T10:54:20.708Z,13.19
2022-11-07T10:55:16.617Z,13.22
2022-11-07T10:56:17.066Z,13.25
2022-11-07T10:57:16.496Z,13.39
2022-11-07T10:58:17.259Z,13.44
2022-11-07T10:59:16.305Z,13.49
2022-11-07T11:00:16.818Z,13.61
2022-11-07T11:01:16.452Z,13.87
2022-11-07T11:02:17.210Z,13.91
2022-11-07T11:03:16.753Z,14.01
2022-11-07T11:04:17.260Z,14.00
2022-11-07T11:05:16.767Z,14.08
2022-11-07T11:06:17.212Z,14.20
2022-11-07T11:07:16.665Z,14.28
2022-11-07T11:08:17.539Z,14.25
2022-11-07T11:09:17.089Z,14.26
2022-11-07T11:10:16.567Z,14.29
2022-11-07T11:11:17.156Z,14.25
2022-11-07T11:12:16.743Z,14.18
2022-11-07T11:13:17.214Z,14.29
2022-11-07T11:14:16.740Z,14.20
2022-11-07T11:15:17.211Z,14.22
2022-11-07T11:16:16.697Z,14.09
2022-11-07T11:17:17.168Z,14.05
2022-11-07T11:18:16.919Z,13.94
2022-11-07T11:19:17.278Z,13.82
2022-11-07T11:20:16.760Z,13.82
2022-11-07T11:21:17.246Z,13.81
2022-11-07T11:22:17.028Z,13.78
2022-11-07T11:23:16.649Z,13.80
2022-11-07T11:24:16.778Z,13.78
2022-11-07T11:25:17.231Z,13.78
2022-11-07T11:26:16.734Z,13.90
2022-11-07T11:27:17.253Z,13.95
2022-11-07T11:28:17.083Z,13.92
2022-11-07T11:29:16.409Z,13.95
2022-11-07T11:30:16.894Z,14.04
2022-11-07T11:31:16.339Z,14.15
2022-11-07T11:32:16.618Z,14.19
2022-11-07T11:33:17.342Z,14.26
2022-11-07T11:34:16.558Z,14.30
2022-11-07T11:35:17.034Z,14.35
2022-11-07T11:36:16.459Z,14.36
2022-11-07T11:37:17.038Z,14.30
2022-11-07T11:38:16.581Z,14.33
2022-11-07T11:39:17.270Z,14.52
2022-11-07T11:40:16.748Z,14.52
2022-11-07T11:41:17.256Z,14.39
2022-11-07T11:42:16.822Z,14.39
2022-11-07T11:43:17.450Z,14.35
2022-11-07T11:44:16.811Z,14.35
2022-11-07T11:45:17.256Z,14.32
2022-11-07T11:46:16.685Z,14.36
2022-11-07T11:47:17.128Z,14.39
2022-11-07T11:48:16.613Z,14.39
2022-11-07T11:49:17.206Z,14.47
2022-11-07T11:50:16.656Z,14.46
2022-11-07T11:51:17.139Z,14.47
2022-11-07T11:52:16.785Z,14.43
2022-11-07T11:53:17.582Z,14.47
2022-11-07T11:54:16.864Z,14.40
2022-11-07T11:55:16.424Z,14.32
2022-11-07T11:56:16.876Z,14.35
2022-11-07T11:57:16.308Z,14.40
2022-11-07T11:58:16.747Z,14.44
2022-11-07T11:59:17.201Z,14.41
2022-11-07T12:00:16.645Z,14.52
2022-11-07T12:01:17.134Z,14.59
2022-11-07T12:02:17.064Z,14.56
2022-11-07T12:03:16.840Z,14.47
2022-11-07T12:04:16.838Z,14.49
2022-11-07T12:05:16.340Z,14.47
2022-11-07T12:06:16.863Z,14.40
2022-11-07T12:07:16.361Z,14.43
2022-11-07T12:08:16.860Z,14.33
2022-11-07T12:09:18.194Z,14.46
2022-11-07T12:10:16.900Z,14.57
2022-11-07T12:11:16.333Z,14.55
2022-11-07T12:12:17.100Z,14.60
2022-11-07T12:13:16.787Z,14.63
2022-11-07T12:14:16.790Z,14.52
2022-11-07T12:15:17.276Z,14.55
2022-11-07T12:16:16.700Z,14.52
2022-11-07T12:17:17.138Z,14.53
2022-11-07T12:18:16.632Z,14.59
2022-11-07T12:19:17.114Z,14.59
2022-11-07T12:20:16.604Z,14.62
2022-11-07T12:21:17.116Z,14.64
2022-11-07T12:22:16.937Z,14.71
2022-11-07T12:23:16.595Z,14.71
2022-11-07T12:24:16.819Z,14.67
2022-11-07T12:25:16.305Z,14.76
2022-11-07T12:26:16.743Z,14.80
2022-11-07T12:27:19.359Z,14.80
2022-11-07T12:28:16.839Z,14.83
2022-11-07T12:29:17.291Z,14.88
2022-11-07T12:30:16.723Z,14.84
2022-11-07T12:31:17.151Z,14.90
2022-11-07T12:32:17.184Z,14.92
2022-11-07T12:33:16.860Z,14.90
2022-11-07T12:34:17.081Z,14.83
2022-11-07T12:35:16.728Z,14.84
2022-11-07T12:36:17.188Z,14.81
2022-11-07T12:37:16.662Z,14.80
2022-11-07T12:38:17.145Z,14.77
2022-11-07T12:39:16.591Z,14.77
2022-11-07T12:40:17.061Z,14.71
2022-11-07T12:41:16.504Z,14.60
2022-11-07T12:42:17.108Z,14.70
2022-11-07T12:43:16.889Z,14.67
2022-11-07T12:44:16.928Z,14.62
2022-11-07T12:45:16.357Z,14.62
2022-11-07T12:46:16.830Z,14.53
2022-11-07T12:47:16.293Z,14.62
2022-11-07T12:48:16.872Z,14.63
2022-11-07T12:49:16.507Z,14.55
2022-11-07T12:50:16.996Z,14.68
2022-11-07T12:51:16.457Z,14.57
2022-11-07T12:52:17.213Z,14.53
2022-11-07T12:53:17.102Z,14.47
2022-11-07T12:54:16.717Z,14.49
2022-11-07T12:55:17.254Z,14.47
2022-11-07T12:56:16.692Z,14.47
2022-11-07T12:57:17.124Z,14.44
2022-11-07T12:58:16.549Z,14.43
2022-11-07T12:59:17.027Z,14.47
2022-11-07T13:00:16.549Z,14.47
2022-11-07T13:01:17.034Z,14.46
2022-11-07T13:02:17.385Z,14.43
2022-11-07T13:03:17.394Z,14.53
2022-11-07T13:04:16.525Z,14.60
2022-11-07T13:05:17.033Z,14.63
2022-11-07T13:06:16.513Z,14.62
2022-11-07T13:07:16.985Z,14.71
2022-11-07T13:08:16.434Z,14.78
2022-11-07T13:09:16.870Z,14.80
2022-11-07T13:10:16.306Z,14.92